createdAt,value
2022-11-06T00:01:15.549Z,9.43
2022-11-06T00:03:47.990Z,9.39
2022-11-06T00:06:38.335Z,9.40
2022-11-06T00:09:12.353Z,9.21
2022-11-06T00:11:44.733Z,9.32
2022-11-06T00:14:18.048Z,9.39
2022-11-06T00:16:50.405Z,9.39
2022-11-06T00:19:22.766Z,9.38
2022-11-06T00:21:55.117Z,9.32
2022-11-06T00:24:27.513Z,9.29
2022-11-06T00:26:59.924Z,9.29
2022-11-06T00:29:32.949Z,9.30
2022-11-06T00:32:05.309Z,9.33
2022-11-06T00:34:37.635Z,9.36
2022-11-06T00:37:10.262Z,9.40
2022-11-06T00:39:42.614Z,9.46
2022-11-06T00:42:14.994Z,9.51
2022-11-06T00:44:48.470Z,9.63
2022-11-06T00:47:20.863Z,9.63
2022-11-06T00:49:53.265Z,9.66
2022-11-06T00:52:25.623Z,9.66
2022-11-06T00:54:57.972Z,9.69
2022-11-06T00:57:30.349Z,9.71
2022-11-06T01:00:04.292Z,9.65
2022-11-06T01:02:37.876Z,9.54
2022-11-06T01:05:10.350Z,9.57
2022-11-06T01:07:42.794Z,9.64
2022-11-06T01:10:15.174Z,9.69
2022-11-06T01:12:47.537Z,9.73
2022-11-06T01:15:20.555Z,9.68
2022-11-06T01:17:52.924Z,9.61
2022-11-06T01:20:25.639Z,9.65
2022-11-06T01:22:58.028Z,9.69
2022-11-06T01:25:30.472Z,9.58
2022-11-06T01:28:02.972Z,9.55
2022-11-06T01:30:37.210Z,9.58
2022-11-06T01:33:09.564Z,9.68
2022-11-06T01:35:44.908Z,9.67
2022-11-06T01:38:17.997Z,9.70
2022-11-06T01:40:50.512Z,9.75
2022-11-06T01:43:24.963Z,9.78
2022-11-06T01:45:58.085Z,9.83
2022-11-06T01:48:30.574Z,9.80
2022-11-06T01:51:03.165Z,9.69
2022-11-06T01:53:37.085Z,9.66
2022-11-06T01:56:12.062Z,9.71
2022-11-06T01:58:47.340Z,9.62
2022-11-06T02:01:20.554Z,9.63
2022-11-06T02:03:57.595Z,9.51
2022-11-06T02:06:31.181Z,9.50
2022-11-06T02:09:10.521Z,9.47
2022-11-06T02:11:45.060Z,9.47
2022-11-06T02:14:28.284Z,9.43
2022-11-06T02:17:09.042Z,9.43
2022-11-06T02:19:54.161Z,9.52
2022-11-06T02:22:39.837Z,9.54
2022-11-06T02:25:19.525Z,9.54
2022-11-06T02:28:02.461Z,9.53
2022-11-06T02:30:41.293Z,9.50
2022-11-06T02:33:16.588Z,9.49
2022-11-06T02:35:52.897Z,9.48
2022-11-06T02:38:30.456Z,9.50
2022-11-06T02:41:06.655Z,9.51
2022-11-06T02:43:44.147Z,9.52
2022-11-06T02:46:20.454Z,9.43
2022-11-06T02:48:58.668Z,9.38
2022-11-06T02:51:36.048Z,9.34
2022-11-06T02:54:10.433Z,9.33
2022-11-06T02:56:45.764Z,9.30
2022-11-06T02:59:21.813Z,9.32
2022-11-06T03:01:58.548Z,9.28
2022-11-06T03:04:37.395Z,9.23
2022-11-06T03:07:15.707Z,9.23
2022-11-06T03:09:49.206Z,9.22
2022-11-06T03:12:27.522Z,9.01
2022-11-06T03:15:10.998Z,9.02
2022-11-06T03:17:50.222Z,9.00
2022-11-06T03:20:29.468Z,8.99
2022-11-06T03:23:10.621Z,8.97
2022-11-06T03:25:50.834Z,8.93
2022-11-06T03:28:29.414Z,8.83
2022-11-06T03:31:06.383Z,8.84
2022-11-06T03:33:44.113Z,8.82
2022-11-06T03:36:22.975Z,8.75
2022-11-06T03:39:04.082Z,8.53
2022-11-06T03:41:42.081Z,8.62
2022-11-06T03:44:17.773Z,8.62
2022-11-06T03:46:59.864Z,8.38
2022-11-06T03:49:37.171Z,8.42
2022-11-06T03:52:13.278Z,8.41
2022-11-06T03:54:54.380Z,8.42
2022-11-06T03:57:33.770Z,8.39
2022-11-06T04:00:08.402Z,8.42
2022-11-06T04:02:52.537Z,8.42
2022-11-06T04:05:25.084Z,8.40
2022-11-06T04:08:16.214Z,8.43
2022-11-06T04:11:10.364Z,8.46
2022-11-06T04:14:01.271Z,8.42
2022-11-06T04:16:36.316Z,8.26
2022-11-06T04:19:15.536Z,8.24
2022-11-06T04:22:18.028Z,8.30
2022-11-06T04:25:21.675Z,8.23
2022-11-06T04:28:06.368Z,8.24
2022-11-06T04:30:45.602Z,8.10
2022-11-06T04:33:25.512Z,8.16
2022-11-06T04:36:06.739Z,8.14
2022-11-06T04:38:46.943Z,8.16
2022-11-06T04:41:33.588Z,8.19
2022-11-06T04:44:09.951Z,8.18
2022-11-06T04:46:46.942Z,8.11
2022-11-06T04:49:21.354Z,8.13
2022-11-06T04:51:55.113Z,8.13
2022-11-06T04:54:27.854Z,8.13
2022-11-06T04:57:01.264Z,8.10
2022-11-06T04:59:36.157Z,8.18
2022-11-06T05:02:08.695Z,7.99
2022-11-06T05:04:41.120Z,7.87
2022-11-06T05:07:14.440Z,7.97
2022-11-06T05:09:46.777Z,8.02
2022-11-06T05:12:19.162Z,8.06
2022-11-06T05:14:51.530Z,8.05
2022-11-06T05:17:23.808Z,8.02
2022-11-06T05:19:56.172Z,8.08
2022-11-06T05:22:47.424Z,8.09
2022-11-06T05:25:19.772Z,7.98
2022-11-06T05:27:52.085Z,7.92
2022-11-06T05:30:24.966Z,8.03
2022-11-06T05:32:57.288Z,8.14
2022-11-06T05:35:29.645Z,8.12
2022-11-06T05:38:03.202Z,8.17
2022-11-06T05:40:35.516Z,8.27
2022-11-06T05:43:07.912Z,8.42
2022-11-06T05:45:40.238Z,8.51
2022-11-06T05:48:12.777Z,8.63
2022-11-06T05:50:45.328Z,8.75
2022-11-06T05:53:21.506Z,8.85
2022-11-06T05:55:53.902Z,8.90
2022-11-06T05:58:26.615Z,9.06
2022-11-06T06:00:59.101Z,9.16
2022-11-06T06:03:31.785Z,9.20
2022-11-06T06:06:04.868Z,9.34
2022-11-06T06:08:38.455Z,9.42
2022-11-06T06:11:10.822Z,9.50
2022-11-06T06:13:43.543Z,9.58
2022-11-06T06:16:15.918Z,9.53
2022-11-06T06:18:49.633Z,9.60
2022-11-06T06:21:22.043Z,9.70
2022-11-06T06:23:55.117Z,9.74
2022-11-06T06:26:27.658Z,9.70
2022-11-06T06:29:01.444Z,9.93
2022-11-06T06:31:33.847Z,9.91
2022-11-06T06:34:06.238Z,9.85
2022-11-06T06:36:38.605Z,9.91
2022-11-06T06:39:11.650Z,9.94
2022-11-06T06:41:43.962Z,10.07
2022-11-06T06:44:16.553Z,10.18
2022-11-06T06:46:48.992Z,10.26
2022-11-06T06:49:21.333Z,10.29
2022-11-06T06:51:54.546Z,10.26
2022-11-06T06:54:27.609Z,10.36
2022-11-06T06:56:59.954Z,10.45
2022-11-06T06:59:32.365Z,10.41
2022-11-06T07:02:04.862Z,10.20
2022-11-06T07:04:37.461Z,10.12
2022-11-06T07:07:09.805Z,10.05
2022-11-06T07:09:42.802Z,10.10
2022-11-06T07:12:15.165Z,10.05
2022-11-06T07:14:47.515Z,10.10
2022-11-06T07:17:19.854Z,10.13
2022-11-06T07:19:52.225Z,10.21
2022-11-06T07:22:32.364Z,10.31
2022-11-06T07:25:10.076Z,10.21
2022-11-06T07:27:42.423Z,10.19
2022-11-06T07:30:14.897Z,10.27
2022-11-06T07:32:47.287Z,10.26
2022-11-06T07:35:19.628Z,10.44
2022-11-06T07:37:51.933Z,10.45
2022-11-06T07:40:24.925Z,10.46
2022-11-06T07:43:03.570Z,10.49
2022-11-06T07:45:36.819Z,10.59
2022-11-06T07:48:09.202Z,10.67
2022-11-06T07:50:41.593Z,10.70
2022-11-06T07:53:14.124Z,10.75
2022-11-06T07:55:50.960Z,10.74
2022-11-06T07:58:24.350Z,10.80
2022-11-06T08:00:58.378Z,10.90
2022-11-06T08:03:31.305Z,11.03
2022-11-06T08:06:04.616Z,11.08
2022-11-06T08:08:36.970Z,11.07
2022-11-06T08:11:11.413Z,11.17
2022-11-06T08:13:43.842Z,11.35
2022-11-06T08:16:16.179Z,11.52
2022-11-06T08:18:48.502Z,11.65
2022-11-06T08:21:20.815Z,11.77
2022-11-06T08:23:53.169Z,11.86
2022-11-06T08:26:26.861Z,11.90
2022-11-06T08:28:59.314Z,11.79
2022-11-06T08:31:31.718Z,11.87
2022-11-06T08:34:04.092Z,11.91
2022-11-06T08:36:38.668Z,11.76
2022-11-06T08:39:11.080Z,11.81
2022-11-06T08:41:44.701Z,11.75
2022-11-06T08:44:17.257Z,11.95
2022-11-06T08:46:52.165Z,11.99
2022-11-06T08:49:24.759Z,11.93
2022-11-06T08:51:57.116Z,12.04
2022-11-06T08:54:29.575Z,12.12
2022-11-06T08:57:03.348Z,12.01
2022-11-06T08:59:35.746Z,12.11
2022-11-06T09:02:12.205Z,12.21
2022-11-06T09:04:44.644Z,12.20
2022-11-06T09:07:17.228Z,12.29
2022-11-06T09:09:49.614Z,12.31
2022-11-06T09:12:22.647Z,12.34
2022-11-06T09:14:55.048Z,12.38
2022-11-06T09:17:27.559Z,12.42
2022-11-06T09:19:59.914Z,12.42
2022-11-06T09:22:32.304Z,12.20
2022-11-06T09:25:05.845Z,12.11
2022-11-06T09:27:43.813Z,12.28
2022-11-06T09:30:17.797Z,12.26
2022-11-06T09:32:51.619Z,11.55
2022-11-06T09:35:25.301Z,11.70
2022-11-06T09:38:01.246Z,11.64
2022-11-06T09:40:35.991Z,11.76
2022-11-06T09:43:50.201Z,11.97
2022-11-06T09:46:22.205Z,12.10
2022-11-06T09:48:58.515Z,12.19
2022-11-06T09:51:39.781Z,12.13
2022-11-06T09:54:17.369Z,12.20
2022-11-06T09:56:55.330Z,12.31
2022-11-06T09:59:30.915Z,12.37
2022-11-06T10:02:18.817Z,12.40
2022-11-06T10:04:59.041Z,12.45
2022-11-06T10:07:34.838Z,12.54
2022-11-06T10:10:14.440Z,12.47
2022-11-06T10:13:08.636Z,12.44
2022-11-06T10:15:48.889Z,12.11
2022-11-06T10:18:30.797Z,12.15
2022-11-06T10:21:11.011Z,12.01
2022-11-06T10:23:47.901Z,11.89
2022-11-06T10:26:28.648Z,11.93
2022-11-06T10:29:23.317Z,12.04
2022-11-06T10:32:27.753Z,12.10
2022-11-06T10:35:03.647Z,12.11
2022-11-06T10:37:42.554Z,12.15
2022-11-06T10:40:18.306Z,12.18
2022-11-06T10:43:00.213Z,12.29
2022-11-06T10:45:35.086Z,12.36
2022-11-06T10:48:26.002Z,12.46
2022-11-06T10:51:27.363Z,12.60
2022-11-06T10:54:13.221Z,12.57
2022-11-06T10:57:01.590Z,12.71
2022-11-06T10:59:34.163Z,12.81
2022-11-06T11:02:22.285Z,12.87
2022-11-06T11:04:58.152Z,12.95
2022-11-06T11:07:33.861Z,13.06
2022-11-06T11:10:25.204Z,13.12
2022-11-06T11:13:04.077Z,13.18
2022-11-06T11:15:46.423Z,13.26
2022-11-06T11:18:22.829Z,13.27
2022-11-06T11:21:06.348Z,13.10
2022-11-06T11:23:38.967Z,13.23
2022-11-06T11:26:22.065Z,13.33
2022-11-06T11:28:56.527Z,13.37
2022-11-06T11:31:31.525Z,13.47
2022-11-06T11:34:14.474Z,13.37
2022-11-06T11:36:57.432Z,13.48
2022-11-06T11:39:32.424Z,13.48
2022-11-06T11:42:32.129Z,13.54
2022-11-06T11:45:15.179Z,13.58
2022-11-06T11:47:49.263Z,13.58
2022-11-06T11:50:30.883Z,13.36
2022-11-06T11:53:10.827Z,13.36
2022-11-06T11:55:45.836Z,13.39
2022-11-06T11:58:22.456Z,13.42
2022-11-06T12:00:57.868Z,13.38
2022-11-06T12:03:34.415Z,13.47
2022-11-06T12:06:10.046Z,13.49
2022-11-06T12:08:48.688Z,13.45
2022-11-06T12:11:24.274Z,13.40
2022-11-06T12:14:39.381Z,13.38
2022-11-06T12:17:17.681Z,13.48
2022-11-06T12:19:54.235Z,13.32
2022-11-06T12:22:32.357Z,13.33
2022-11-06T12:25:12.582Z,13.45
2022-11-06T12:27:50.971Z,13.53
2022-11-06T12:30:23.525Z,13.51
2022-11-06T12:33:05.882Z,13.35
2022-11-06T12:35:41.976Z,13.45
2022-11-06T12:38:21.302Z,13.53
2022-11-06T12:41:00.788Z,13.53
2022-11-06T12:43:40.138Z,13.37
2022-11-06T12:46:38.254Z,13.45
2022-11-06T12:49:56.131Z,13.37
2022-11-06T12:52:42.204Z,13.03
2022-11-06T12:55:22.805Z,12.89
2022-11-06T12:58:09.499Z,12.94
2022-11-06T13:00:54.589Z,12.92
2022-11-06T13:03:52.145Z,12.70
2022-11-06T13:06:36.345Z,12.57
2022-11-06T13:09:15.925Z,12.80
2022-11-06T13:11:55.146Z,12.96
2022-11-06T13:14:32.182Z,12.97
2022-11-06T13:17:12.825Z,12.87
2022-11-06T13:19:53.661Z,12.82
2022-11-06T13:22:29.890Z,12.65
2022-11-06T13:25:10.647Z,12.71
2022-11-06T13:27:51.360Z,12.73
2022-11-06T13:30:26.133Z,12.80
2022-11-06T13:33:05.936Z,12.87
2022-11-06T13:35:41.748Z,12.93
2022-11-06T13:38:20.665Z,12.91
2022-11-06T13:41:02.193Z,12.86
2022-11-06T13:43:40.912Z,12.79
2022-11-06T13:46:25.013Z,12.67
2022-11-06T13:49:08.269Z,12.64
2022-11-06T13:51:50.480Z,12.67
2022-11-06T13:54:32.286Z,12.72
2022-11-06T13:57:35.953Z,12.60
2022-11-06T14:00:17.626Z,12.59
2022-11-06T14:03:39.142Z,12.58
2022-11-06T14:06:17.645Z,12.56
2022-11-06T14:08:53.139Z,12.47
2022-11-06T14:11:28.854Z,12.42
2022-11-06T14:14:03.377Z,12.47
2022-11-06T14:16:37.509Z,12.52
2022-11-06T14:19:14.205Z,12.43
2022-11-06T14:21:49.344Z,12.32
2022-11-06T14:24:39.841Z,12.28
2022-11-06T14:27:33.096Z,12.42
2022-11-06T14:31:11.030Z,12.41
2022-11-06T14:33:58.501Z,12.43
2022-11-06T14:36:36.090Z,12.42
2022-11-06T14:39:13.312Z,12.45
2022-11-06T14:41:57.938Z,12.47
2022-11-06T14:44:43.018Z,12.45
2022-11-06T14:47:30.714Z,12.28
2022-11-06T14:50:08.177Z,12.18
2022-11-06T14:52:45.405Z,12.20
2022-11-06T14:55:28.271Z,12.29
2022-11-06T14:58:14.359Z,12.33
2022-11-06T15:00:51.922Z,12.29
2022-11-06T15:03:30.854Z,12.30
2022-11-06T15:06:19.728Z,12.39
2022-11-06T15:08:58.542Z,12.37
2022-11-06T15:12:08.500Z,12.38
2022-11-06T15:14:55.039Z,12.39
2022-11-06T15:17:31.972Z,12.34
2022-11-06T15:20:21.263Z,12.35
2022-11-06T15:23:18.017Z,12.28
2022-11-06T15:26:00.572Z,12.34
2022-11-06T15:28:41.370Z,12.25
2022-11-06T15:31:16.681Z,12.29
2022-11-06T15:33:59.045Z,12.26
2022-11-06T15:36:38.424Z,12.23
2022-11-06T15:39:31.588Z,12.08
2022-11-06T15:42:07.782Z,12.04
2022-11-06T15:44:41.972Z,11.91
2022-11-06T15:47:21.761Z,12.04
2022-11-06T15:50:06.346Z,12.07
2022-11-06T15:52:40.484Z,11.97
2022-11-06T15:55:13.457Z,11.94
2022-11-06T15:57:45.804Z,11.97
2022-11-06T16:00:20.261Z,12.01
2022-11-06T16:02:58.866Z,12.00
2022-11-06T16:05:34.097Z,12.05
2022-11-06T16:08:07.551Z,12.01
2022-11-06T16:10:41.013Z,12.02
2022-11-06T16:13:16.487Z,12.01
2022-11-06T16:15:54.576Z,12.04
2022-11-06T16:18:29.562Z,12.01
2022-11-06T16:21:11.388Z,12.00
2022-11-06T16:23:49.395Z,12.02
2022-11-06T16:26:26.481Z,12.02
2022-11-06T16:29:00.372Z,12.04
2022-11-06T16:31:33.252Z,12.01
2022-11-06T16:34:07.875Z,11.97
2022-11-06T16:36:52.660Z,11.89
2022-11-06T16:39:50.576Z,11.91
2022-11-06T16:42:26.264Z,11.87
2022-11-06T16:45:08.357Z,11.78
2022-11-06T16:47:40.717Z,11.79
2022-11-06T16:50:42.619Z,11.74
2022-11-06T16:53:19.444Z,11.62
2022-11-06T16:55:58.038Z,11.60
2022-11-06T16:58:34.064Z,11.61
2022-11-06T17:01:06.861Z,11.59
2022-11-06T17:03:45.661Z,11.53
2022-11-06T17:06:21.995Z,11.47
2022-11-06T17:09:09.434Z,11.38
2022-11-06T17:11:43.062Z,11.37
2022-11-06T17:14:18.918Z,11.40
2022-11-06T17:16:53.142Z,11.36
2022-11-06T17:19:26.741Z,11.28
2022-11-06T17:21:59.065Z,11.18
2022-11-06T17:24:36.383Z,11.14
2022-11-06T17:27:10.312Z,11.14
2022-11-06T17:29:42.791Z,11.20
2022-11-06T17:32:15.140Z,11.16
2022-11-06T17:34:47.465Z,11.11
2022-11-06T17:37:21.353Z,10.95
2022-11-06T17:39:53.751Z,10.99
2022-11-06T17:42:26.830Z,10.95
2022-11-06T17:44:59.157Z,10.93
2022-11-06T17:47:31.573Z,10.79
2022-11-06T17:50:04.424Z,10.79
2022-11-06T17:52:36.765Z,10.67
2022-11-06T17:55:09.129Z,10.72
2022-11-06T17:57:42.606Z,10.73
2022-11-06T18:00:15.255Z,10.72
2022-11-06T18:03:01.034Z,10.56
2022-11-06T18:05:35.261Z,10.57
2022-11-06T18:08:12.119Z,10.58
2022-11-06T18:10:44.699Z,10.66
2022-11-06T18:13:17.773Z,10.66
2022-11-06T18:15:51.810Z,10.70
2022-11-06T18:18:24.208Z,10.67
2022-11-06T18:20:56.886Z,10.63
2022-11-06T18:23:29.251Z,10.65
2022-11-06T18:26:01.732Z,10.66
2022-11-06T18:28:34.799Z,10.63
2022-11-06T18:31:07.205Z,10.64
2022-11-06T18:33:39.609Z,10.60
2022-11-06T18:36:13.486Z,10.60
2022-11-06T18:38:46.111Z,10.57
2022-11-06T18:41:20.693Z,10.50
2022-11-06T18:43:56.750Z,10.44
2022-11-06T18:46:29.580Z,10.36
2022-11-06T18:49:02.052Z,10.38
2022-11-06T18:51:36.194Z,10.41
2022-11-06T18:54:10.907Z,10.30
2022-11-06T18:56:43.281Z,10.27
2022-11-06T18:59:18.870Z,10.31
2022-11-06T19:01:51.366Z,10.35
2022-11-06T19:04:25.831Z,10.21
2022-11-06T19:06:58.244Z,10.16
2022-11-06T19:09:30.652Z,10.19
2022-11-06T19:12:03.079Z,10.28
2022-11-06T19:14:36.215Z,10.36
2022-11-06T19:17:08.584Z,10.49
2022-11-06T19:19:41.043Z,10.56
2022-11-06T19:22:13.409Z,10.59
2022-11-06T19:24:46.005Z,10.61
2022-11-06T19:27:18.366Z,10.53
2022-11-06T19:29:52.080Z,10.66
2022-11-06T19:32:24.579Z,10.58
2022-11-06T19:34:57.010Z,10.43
2022-11-06T19:37:31.572Z,10.27
2022-11-06T19:40:06.285Z,10.25
2022-11-06T19:42:38.964Z,10.22
2022-11-06T19:45:12.113Z,10.20
2022-11-06T19:47:44.457Z,10.13
2022-11-06T19:50:25.018Z,10.18
2022-11-06T19:53:05.705Z,10.07
2022-11-06T19:55:38.811Z,10.03
2022-11-06T19:58:11.251Z,10.01
2022-11-06T20:00:44.676Z,10.07
2022-11-06T20:03:17.334Z,10.12
2022-11-06T20:05:51.726Z,10.15
2022-11-06T20:08:24.080Z,10.25
2022-11-06T20:11:02.530Z,10.25
2022-11-06T20:13:35.893Z,10.23
2022-11-06T20:16:11.437Z,10.16
2022-11-06T20:18:44.207Z,10.06
2022-11-06T20:21:16.607Z,10.05
2022-11-06T20:23:49.312Z,10.11
2022-11-06T20:26:22.305Z,10.11
2022-11-06T20:28:54.658Z,10.19
2022-11-06T20:31:27.946Z,10.15
2022-11-06T20:34:00.546Z,10.14
2022-11-06T20:36:34.866Z,10.19
2022-11-06T20:39:08.467Z,10.17
2022-11-06T20:41:41.024Z,10.24
2022-11-06T20:44:13.413Z,10.20
2022-11-06T20:46:47.992Z,10.05
2022-11-06T20:49:20.536Z,9.75
2022-11-06T20:52:13.243Z,9.66
2022-11-06T20:54:47.565Z,9.64
2022-11-06T20:57:20.079Z,9.69
2022-11-06T20:59:52.498Z,9.70
2022-11-06T21:02:25.868Z,9.69
2022-11-06T21:04:58.313Z,9.59
2022-11-06T21:07:30.661Z,9.66
2022-11-06T21:10:03.353Z,9.71
2022-11-06T21:12:35.773Z,9.76
2022-11-06T21:15:08.573Z,9.74
2022-11-06T21:17:42.346Z,9.71
2022-11-06T21:20:16.947Z,9.69
2022-11-06T21:22:52.741Z,9.60
2022-11-06T21:25:25.112Z,9.66
2022-11-06T21:27:57.566Z,9.69
2022-11-06T21:30:29.940Z,9.05
2022-11-06T21:33:02.952Z,9.05
2022-11-06T21:35:35.814Z,9.13
2022-11-06T21:38:08.467Z,9.16
2022-11-06T21:40:40.866Z,9.18
2022-11-06T21:43:13.575Z,9.20
2022-11-06T21:45:46.165Z,9.22
2022-11-06T21:48:32.846Z,9.28
2022-11-06T21:51:13.596Z,9.32
2022-11-06T21:54:04.212Z,9.23
2022-11-06T21:56:37.797Z,9.33
2022-11-06T21:59:12.298Z,9.39
2022-11-06T22:01:44.830Z,9.49
2022-11-06T22:04:18.005Z,9.55
2022-11-06T22:06:51.603Z,9.58
2022-11-06T22:09:26.022Z,9.61
2022-11-06T22:11:59.219Z,9.61
2022-11-06T22:14:31.684Z,9.54
2022-11-06T22:17:04.045Z,9.54
2022-11-06T22:19:37.121Z,9.48
2022-11-06T22:22:09.470Z,9.45
2022-11-06T22:24:41.857Z,9.45
2022-11-06T22:27:14.221Z,9.40
2022-11-06T22:29:46.584Z,9.33
2022-11-06T22:32:18.930Z,9.32
2022-11-06T22:34:52.132Z,9.33
2022-11-06T22:37:24.506Z,9.31
2022-11-06T22:39:56.874Z,9.23
2022-11-06T22:42:29.247Z,9.18
2022-11-06T22:45:01.786Z,9.09
2022-11-06T22:47:34.161Z,9.06
2022-11-06T22:50:08.217Z,9.03
2022-11-06T22:52:40.519Z,9.06
2022-11-06T22:55:12.873Z,8.98
2022-11-06T22:57:45.202Z,9.01
2022-11-06T23:00:21.681Z,8.98
2022-11-06T23:02:54.110Z,8.90
2022-11-06T23:05:27.337Z,8.87
2022-11-06T23:07:59.652Z,8.84
2022-11-06T23:10:34.194Z,8.80
2022-11-06T23:13:06.541Z,8.79
2022-11-06T23:15:38.928Z,8.76
2022-11-06T23:18:11.422Z,8.75
2022-11-06T23:20:44.565Z,8.68
2022-11-06T23:23:17.157Z,8.67
2022-11-06T23:25:49.645Z,8.55
2022-11-06T23:28:22.009Z,8.43
2022-11-06T23:30:54.381Z,8.46
2022-11-06T23:33:26.717Z,8.51
2022-11-06T23:36:03.852Z,8.55
2022-11-06T23:38:36.313Z,8.53
2022-11-06T23:41:24.787Z,8.49
2022-11-06T23:43:58.256Z,8.49
2022-11-06T23:46:32.397Z,8.46
2022-11-06T23:49:04.765Z,8.49
2022-11-06T23:51:37.811Z,8.40
2022-11-06T23:54:10.228Z,8.50
2022-11-06T23:56:42.623Z,8.49
2022-11-06T23:59:15.125Z,8.49
